Narowal Weather



Narowal's Current Weather

Temprature 30o mist

mist

Rain: 0 %

Min Temprature30o
Max Temprature30o
Humidity84
Wind Speed4.1 m/h
Sun Rise05:23:43
Sun Set18:47:07
Current Time: 13-Aug-2020 19:53:41
Lat/Lon: 32.1, 74.88




Narowal's Geo Location



Narowal's Weather Forecast

Time Overall Temp Min Temp Max Temp Humidity Wind Speed Rain
13-Aug-2020 (Thu)
20:00:00 light rain 30.030 30.030 30.060 80 4.15 m/h 67 %
23:00:00 light rain 28.150 27.640 28.150 85 5.18 m/h 37 %
14-Aug-2020 (Fri)
02:00:00 broken clouds 26.740 26.520 26.740 86 3.73 m/h 0 %
05:00:00 scattered clouds 25.840 25.810 25.840 85 3.11 m/h 0 %
08:00:00 clear sky 29.010 29.010 29.010 72 3.63 m/h 0 %
11:00:00 clear sky 33.810 33.810 33.810 55 3.51 m/h 0 %
14:00:00 clear sky 36.320 36.320 36.320 46 2.42 m/h 0 %
17:00:00 scattered clouds 35.240 35.240 35.240 51 1.58 m/h 0 %
20:00:00 scattered clouds 31.320 31.320 31.320 64 3.71 m/h 0 %
23:00:00 few clouds 29.370 29.370 29.370 73 2.82 m/h 0 %
15-Aug-2020 (Sat)
02:00:00 clear sky 28.480 28.480 28.480 74 2.32 m/h 0 %
05:00:00 clear sky 27.830 27.830 27.830 76 2.01 m/h 0 %
08:00:00 clear sky 31.230 31.230 31.230 66 2.88 m/h 0 %
11:00:00 clear sky 35.220 35.220 35.220 50 3 m/h 0 %
14:00:00 few clouds 37.330 37.330 37.330 43 2.09 m/h 0 %
17:00:00 scattered clouds 36.460 36.460 36.460 47 2.47 m/h 0 %
20:00:00 few clouds 31.800 31.800 31.800 62 3.08 m/h 0 %
23:00:00 few clouds 30.560 30.560 30.560 65 3.18 m/h 0 %
16-Aug-2020 (Sun)
02:00:00 light rain 29.340 29.340 29.340 72 3.1 m/h 39 %
05:00:00 light rain 27.030 27.030 27.030 86 3.32 m/h 184 %
08:00:00 light rain 30.040 30.040 30.040 75 3.56 m/h 84 %
11:00:00 moderate rain 33.190 33.190 33.190 63 3.92 m/h 394 %
14:00:00 light rain 36.770 36.770 36.770 47 2.57 m/h 168 %
17:00:00 few clouds 36.620 36.620 36.620 47 2.11 m/h 0 %
20:00:00 clear sky 32.370 32.370 32.370 60 3.38 m/h 0 %
23:00:00 clear sky 30.540 30.540 30.540 68 3.04 m/h 0 %
17-Aug-2020 (Mon)
02:00:00 light rain 28.740 28.740 28.740 77 3.11 m/h 252 %
05:00:00 moderate rain 27.310 27.310 27.310 85 2.78 m/h 712 %
08:00:00 moderate rain 29.580 29.580 29.580 79 4.42 m/h 528 %
11:00:00 moderate rain 33.010 33.010 33.010 69 5.15 m/h 1,038 %
14:00:00 moderate rain 33.430 33.430 33.430 66 2.55 m/h 1,125 %
17:00:00 overcast clouds 33.700 33.700 33.700 64 2.84 m/h 0 %
20:00:00 overcast clouds 30.880 30.880 30.880 69 3.09 m/h 0 %
23:00:00 overcast clouds 29.860 29.860 29.860 73 2.94 m/h 0 %
18-Aug-2020 (Tue)
02:00:00 moderate rain 27.180 27.180 27.180 90 2.63 m/h 941 %
05:00:00 moderate rain 26.500 26.500 26.500 93 3.21 m/h 622 %
08:00:00 moderate rain 27.900 27.900 27.900 89 3.79 m/h 696 %
11:00:00 light rain 32.460 32.460 32.460 69 4.64 m/h 57 %
14:00:00 overcast clouds 34.240 34.240 34.240 62 4.03 m/h 0 %
17:00:00 overcast clouds 33.020 33.020 33.020 68 3.18 m/h 0 %

Famous Cities (60)